Airfield :







YOU CAN JOIN US ON...

 
LOGIN :

Register | Disclaimer

   EN    FR    IT 

 









Legend :    VFR   Marginal VFR   IFR   Intensive IFR   Very Intensive IFR
Visi :
Ceiling :
>= 8 km
>= 3000ft
5 to 8 km
1000 to 3000 ft
1500m to 5 km
500 to 1000 ft
800 to 1500m
200 to 500 ft
< 800m
< 200 ft
Symbols :   Thunderstorms  Fog  Heavy snow  Heavy precipitations  Wind > 20 kt






- Airport Elevation : 787 ft
- IATA code : RUT


KRUT - Rutland - Southern Vermont Regional

CURRENT METAR :
  • 200056Z AUTO 27009KT 10SM CLR M04/M16 A3026 RMK AO2 SLP251 T10391156 FZRANO $

EXPIRED METARs :
  • 192356Z AUTO 29008KT 10SM CLR M03/M16 A3025 RMK AO2 SLP247 T10331156 10000 21033 51025 FZRANO $
  • 192256Z AUTO 31006KT 10SM CLR M03/M15 A3022 RMK AO2 SLP240 T10281150 FZRANO $

TAF KRUT
Valid from the 20 at 00:00 until the 21 at 00:00 UTC


192331Z 2000/2024 31005KT P6SM SKC
FM200800 30004KT P6SM SCT045
FM201500 30008KT P6SM SCT050



MET'MAP, your aeronautical weather chart ! - Copyright ORBIFLY December 2007 - Disclaimer

ORBIFLY MET'MAP TEAM :

Programming & Development : Alexandra Zaïnal
Concept & original design : Baudouin d'Aumeries
Assistance for programming : Marc-Olivier Méhu
Technical & hardware support : Manuel Goepfert

Contact : metmap@orbifly.com




SOURCES & CREDITS :

   NOAA